Bloom, Kansas
Current Conditions -  °F | °C
As of 10:52 PM on Monday 22 Dec 2014 (Local Time) from KDDC Reporting Station
Clear Clear  
Wind Chill: 25°   Ceiling: Unl
Heat Index: 34°   Visibility: 10mi
Dew Point: 23°   Wind: 13mph
Humidity: 64%   Direction: 300°WNW
Pressure: 29.73"   Gusts: NA
Location:  37.3916°N, 99.8236°W
Report Text: KDDC 230452Z AUTO 30011KT 10SM CLR 01/M05 A2973 RMK AO2 SLP071 T00111050
Loading
Personal Weather Stations






























Interactive Weather Map New forecast layout! Learn more

10-Day Weather Forecast

Advertisements
Track Severe Weather on mobile